createdAt,value
2018-10-07T00:01:37.155Z,11.00
2018-10-07T00:04:05.969Z,7.17
2018-10-07T00:09:15.399Z,9.30
2018-10-07T00:11:44.251Z,9.57
2018-10-07T00:14:12.451Z,11.37
2018-10-07T00:16:41.161Z,9.20
2018-10-07T00:19:15.242Z,12.90
2018-10-07T00:21:43.934Z,9.87
2018-10-07T00:24:12.067Z,8.03
2018-10-07T00:26:40.664Z,8.40
2018-10-07T00:29:09.472Z,8.50
2018-10-07T00:31:43.279Z,11.87
2018-10-07T00:34:11.665Z,12.10
2018-10-07T00:36:40.021Z,9.17
2018-10-07T00:39:08.955Z,13.23
2018-10-07T00:41:38.204Z,9.20
2018-10-07T00:46:44.793Z,20.33
2018-10-07T00:49:18.296Z,9.90
2018-10-07T00:51:46.303Z,9.07
2018-10-07T00:54:14.465Z,11.60
2018-10-07T00:59:15.477Z,15.10
2018-10-07T01:01:43.605Z,13.20
2018-10-07T01:04:11.983Z,9.77
2018-10-07T01:06:40.953Z,8.60
2018-10-07T01:09:10.690Z,11.97
2018-10-07T01:11:39.562Z,9.20
2018-10-07T01:14:09.777Z,11.07
2018-10-07T01:16:38.054Z,9.27
2018-10-07T01:19:06.246Z,8.67
2018-10-07T01:21:34.823Z,7.40
2018-10-07T01:24:03.351Z,6.60
2018-10-07T01:26:35.884Z,12.40
2018-10-07T01:29:11.236Z,6.30
2018-10-07T01:31:39.740Z,5.20
2018-10-07T01:34:07.806Z,6.60
2018-10-07T01:36:36.146Z,5.37
2018-10-07T01:39:07.222Z,5.93
2018-10-07T01:41:36.296Z,11.53
2018-10-07T01:44:04.385Z,5.80
2018-10-07T01:46:33.402Z,6.00
2018-10-07T01:49:02.393Z,6.73
2018-10-07T01:51:30.576Z,5.00
2018-10-07T01:53:58.757Z,5.10
2018-10-07T01:56:27.320Z,8.13
2018-10-07T01:58:55.372Z,5.80
2018-10-07T02:01:23.538Z,6.27
2018-10-07T02:03:51.810Z,6.13
2018-10-07T02:06:19.865Z,7.80
2018-10-07T02:08:47.958Z,10.70
2018-10-07T02:11:16.089Z,14.03
2018-10-07T02:13:44.928Z,8.70
2018-10-07T02:16:13.329Z,8.43
2018-10-07T02:18:41.413Z,11.57
2018-10-07T02:21:13.140Z,9.33
2018-10-07T02:23:41.533Z,6.60
2018-10-07T02:26:09.785Z,9.70
2018-10-07T02:28:38.099Z,11.50
2018-10-07T02:31:06.621Z,39.17
2018-10-07T02:33:35.105Z,18.43
2018-10-07T02:36:03.512Z,15.63
2018-10-07T02:38:31.750Z,6.43
2018-10-07T02:41:00.035Z,8.97
2018-10-07T02:43:28.367Z,8.10
2018-10-07T02:46:03.361Z,7.53
2018-10-07T02:48:31.614Z,8.83
2018-10-07T02:50:59.733Z,6.60
2018-10-07T02:53:28.043Z,6.10
2018-10-07T02:55:56.427Z,6.20
2018-10-07T02:58:24.437Z,9.10
2018-10-07T03:00:52.611Z,8.50
2018-10-07T03:03:20.589Z,5.50
2018-10-07T03:05:49.069Z,5.47
2018-10-07T03:08:17.081Z,6.27
2018-10-07T03:10:45.264Z,10.10
2018-10-07T03:13:13.405Z,4.93
2018-10-07T03:15:41.656Z,4.03
2018-10-07T03:18:10.301Z,4.20
2018-10-07T03:20:38.603Z,4.73
2018-10-07T03:23:07.302Z,5.40
2018-10-07T03:25:35.731Z,8.10
2018-10-07T03:28:04.531Z,7.60
2018-10-07T03:30:32.750Z,5.33
2018-10-07T03:33:01.477Z,16.60
2018-10-07T03:35:29.566Z,4.20
2018-10-07T03:37:58.285Z,4.70
2018-10-07T03:40:26.552Z,6.27
2018-10-07T03:42:54.730Z,4.00
2018-10-07T03:45:23.457Z,9.90
2018-10-07T03:47:51.927Z,4.20
2018-10-07T03:50:19.943Z,4.80
2018-10-07T03:52:48.050Z,8.13
2018-10-07T03:55:16.056Z,3.40
2018-10-07T03:57:44.264Z,4.27
2018-10-07T04:00:12.356Z,5.07
2018-10-07T04:02:41.556Z,4.20
2018-10-07T04:05:10.675Z,3.80
2018-10-07T04:07:39.059Z,9.83
2018-10-07T04:10:07.321Z,11.80
2018-10-07T04:12:35.781Z,3.93
2018-10-07T04:15:04.116Z,5.07
2018-10-07T04:17:32.378Z,3.40
2018-10-07T04:20:00.529Z,4.03
2018-10-07T04:22:28.584Z,4.87
2018-10-07T04:24:56.756Z,5.27
2018-10-07T04:27:24.857Z,7.33
2018-10-07T04:29:57.734Z,6.87
2018-10-07T04:32:26.167Z,4.70
2018-10-07T04:34:54.220Z,4.60
2018-10-07T04:37:22.338Z,11.03
2018-10-07T04:39:50.349Z,5.80
2018-10-07T04:42:18.278Z,6.67
2018-10-07T04:44:46.439Z,5.63
2018-10-07T04:47:15.317Z,7.10
2018-10-07T04:49:43.369Z,11.67
2018-10-07T04:52:11.613Z,6.53
2018-10-07T04:54:39.957Z,5.67
2018-10-07T04:57:08.220Z,13.90
2018-10-07T04:59:36.586Z,8.90
2018-10-07T05:02:04.935Z,4.97
2018-10-07T05:04:33.667Z,5.83
2018-10-07T05:07:03.036Z,7.23
2018-10-07T05:09:32.098Z,4.80
2018-10-07T05:12:02.206Z,9.70
2018-10-07T05:14:30.734Z,4.77
2018-10-07T05:16:58.891Z,5.27
2018-10-07T05:19:26.969Z,4.50
2018-10-07T05:21:55.010Z,6.27
2018-10-07T05:24:25.738Z,4.40
2018-10-07T05:26:53.811Z,7.10
2018-10-07T05:29:22.141Z,17.43
2018-10-07T05:31:50.228Z,9.37
2018-10-07T05:34:19.331Z,11.43
2018-10-07T05:36:48.436Z,5.27
2018-10-07T05:39:17.475Z,9.00
2018-10-07T05:41:45.475Z,7.13
2018-10-07T05:44:13.721Z,4.50
2018-10-07T05:46:41.869Z,4.10
2018-10-07T05:49:10.134Z,10.00
2018-10-07T05:51:39.472Z,8.13
2018-10-07T05:54:08.361Z,5.20
2018-10-07T05:56:36.674Z,6.70
2018-10-07T05:59:05.710Z,6.20
2018-10-07T06:01:42.761Z,5.90
2018-10-07T06:04:12.802Z,4.57
2018-10-07T06:06:41.807Z,9.83
2018-10-07T06:09:14.865Z,6.40
2018-10-07T06:11:43.512Z,4.33
2018-10-07T06:16:23.669Z,6.30
2018-10-07T06:18:51.741Z,10.27
2018-10-07T06:21:20.042Z,3.63
2018-10-07T06:23:49.466Z,6.03
2018-10-07T06:26:17.713Z,6.63
2018-10-07T06:28:46.519Z,4.17
2018-10-07T06:31:15.267Z,5.30
2018-10-07T06:33:43.993Z,7.03
2018-10-07T06:36:12.202Z,8.23
2018-10-07T06:38:40.734Z,4.07
2018-10-07T06:41:08.993Z,5.63
2018-10-07T06:43:37.199Z,8.73
2018-10-07T06:46:05.404Z,10.33
2018-10-07T06:48:34.279Z,3.37
2018-10-07T06:51:02.663Z,2.97
2018-10-07T06:53:31.376Z,5.40
2018-10-07T06:55:59.634Z,6.90
2018-10-07T06:58:27.778Z,5.67
2018-10-07T07:00:55.865Z,5.20
2018-10-07T07:03:23.973Z,5.50
2018-10-07T07:05:51.982Z,5.10
2018-10-07T07:08:24.606Z,3.83
2018-10-07T07:10:52.777Z,4.47
2018-10-07T07:13:21.338Z,4.20
2018-10-07T07:15:50.593Z,4.33
2018-10-07T07:18:18.762Z,5.00
2018-10-07T07:20:47.410Z,3.70
2018-10-07T07:23:15.934Z,5.87
2018-10-07T07:25:44.133Z,13.50
2018-10-07T07:28:12.403Z,17.00
2018-10-07T07:30:41.834Z,9.13
2018-10-07T07:33:10.091Z,6.73
2018-10-07T07:35:38.934Z,7.27
2018-10-07T07:38:08.354Z,4.30
2018-10-07T07:40:37.844Z,5.60
2018-10-07T07:43:06.606Z,6.90
2018-10-07T07:45:37.015Z,5.87
2018-10-07T07:48:05.742Z,5.77
2018-10-07T07:50:34.515Z,12.53
2018-10-07T07:53:03.105Z,7.43
2018-10-07T07:55:31.227Z,6.10
2018-10-07T07:58:00.025Z,5.30
2018-10-07T08:00:28.444Z,13.23
2018-10-07T08:02:57.553Z,4.10
2018-10-07T08:05:25.844Z,8.53
2018-10-07T08:07:54.523Z,7.03
2018-10-07T08:10:23.490Z,5.70
2018-10-07T08:12:51.913Z,5.60
2018-10-07T08:15:20.954Z,5.23
2018-10-07T08:17:50.029Z,14.13
2018-10-07T08:20:24.723Z,6.97
2018-10-07T08:22:55.171Z,14.07
2018-10-07T08:25:27.710Z,11.27
2018-10-07T08:27:55.841Z,9.80
2018-10-07T08:30:23.984Z,5.33
2018-10-07T08:32:52.394Z,8.47
2018-10-07T08:35:24.385Z,4.00
2018-10-07T08:37:52.993Z,6.60
2018-10-07T08:40:21.269Z,5.20
2018-10-07T08:42:53.747Z,6.77
2018-10-07T08:45:21.994Z,5.37
2018-10-07T08:47:50.176Z,6.63
2018-10-07T08:50:18.518Z,10.43
2018-10-07T08:52:46.744Z,12.10
2018-10-07T08:55:15.429Z,7.50
2018-10-07T08:57:44.115Z,11.10
2018-10-07T09:00:17.601Z,19.73
2018-10-07T09:02:55.792Z,6.63
2018-10-07T09:05:23.938Z,10.70
2018-10-07T09:07:52.402Z,7.00
2018-10-07T09:10:23.307Z,13.10
2018-10-07T09:12:54.307Z,12.00
2018-10-07T09:15:26.329Z,7.80
2018-10-07T09:17:54.707Z,5.97
2018-10-07T09:23:08.966Z,6.40
2018-10-07T09:25:38.829Z,5.33
2018-10-07T09:28:09.225Z,4.53
2018-10-07T09:30:38.105Z,4.83
2018-10-07T09:33:07.282Z,12.83
2018-10-07T09:35:36.371Z,5.03
2018-10-07T09:38:07.768Z,5.20
2018-10-07T09:40:40.642Z,4.50
2018-10-07T09:43:09.626Z,8.90
2018-10-07T09:45:38.831Z,6.90
2018-10-07T09:48:07.680Z,7.97
2018-10-07T09:50:46.826Z,6.27
2018-10-07T09:53:14.987Z,7.23
2018-10-07T09:55:43.765Z,10.93
2018-10-07T09:58:12.486Z,9.80
2018-10-07T10:00:49.977Z,6.37
2018-10-07T10:03:18.486Z,7.60
2018-10-07T10:05:46.981Z,6.17
2018-10-07T10:08:16.145Z,7.20
2018-10-07T10:10:45.633Z,4.80
2018-10-07T10:13:14.235Z,4.40
2018-10-07T10:15:42.598Z,7.70
2018-10-07T10:18:13.189Z,6.50
2018-10-07T10:20:47.333Z,6.53
2018-10-07T10:23:21.356Z,6.17
2018-10-07T10:25:58.145Z,7.03
2018-10-07T10:28:33.709Z,7.60
2018-10-07T10:31:07.979Z,5.67
2018-10-07T10:33:38.944Z,6.03
2018-10-07T10:36:09.527Z,9.40
2018-10-07T10:38:46.743Z,5.80
2018-10-07T10:41:19.824Z,8.17
2018-10-07T10:46:33.574Z,6.13
2018-10-07T10:49:19.934Z,10.63
2018-10-07T10:51:54.185Z,7.37
2018-10-07T10:54:24.596Z,8.40
2018-10-07T10:56:56.338Z,9.00
2018-10-07T10:59:28.021Z,11.90
2018-10-07T11:02:02.198Z,5.83
2018-10-07T11:04:44.645Z,6.40
2018-10-07T11:07:14.782Z,12.43
2018-10-07T11:12:55.050Z,6.30
2018-10-07T11:15:49.043Z,10.07
2018-10-07T11:18:18.819Z,5.70
2018-10-07T11:20:54.704Z,7.10
2018-10-07T11:23:33.814Z,7.13
2018-10-07T11:26:05.029Z,7.40
2018-10-07T11:28:37.330Z,9.53
2018-10-07T11:31:13.618Z,8.60
2018-10-07T11:33:46.268Z,7.20
2018-10-07T11:37:18.125Z,9.33
2018-10-07T11:39:48.559Z,7.40
2018-10-07T11:42:50.733Z,10.37
2018-10-07T11:45:21.089Z,12.00
2018-10-07T11:48:02.009Z,8.23
2018-10-07T11:50:34.262Z,8.63
2018-10-07T11:53:08.636Z,7.33
2018-10-07T11:55:38.747Z,15.93
2018-10-07T11:58:09.256Z,7.63
2018-10-07T12:00:45.082Z,6.77
2018-10-07T12:03:13.731Z,7.90
2018-10-07T12:05:44.289Z,7.90
2018-10-07T12:08:20.883Z,7.83
2018-10-07T12:10:49.298Z,7.60
2018-10-07T12:13:23.821Z,6.40
2018-10-07T12:18:31.942Z,6.13
2018-10-07T12:21:00.145Z,8.10
2018-10-07T12:23:30.074Z,7.80
2018-10-07T12:25:59.332Z,7.33
2018-10-07T12:28:27.436Z,7.40
2018-10-07T12:30:56.342Z,9.10
2018-10-07T12:33:25.538Z,8.23
2018-10-07T12:35:53.987Z,5.70
2018-10-07T12:38:26.209Z,8.80
2018-10-07T12:40:55.618Z,10.83
2018-10-07T12:43:26.048Z,6.37
2018-10-07T12:45:55.586Z,12.03
2018-10-07T12:48:29.020Z,8.33
2018-10-07T12:53:35.439Z,8.57
2018-10-07T12:56:05.668Z,4.80
2018-10-07T12:58:34.540Z,4.80
2018-10-07T13:03:42.557Z,6.33
2018-10-07T13:08:46.771Z,6.70
2018-10-07T13:11:15.186Z,7.60
2018-10-07T13:13:43.878Z,6.70
2018-10-07T13:16:14.599Z,6.70
2018-10-07T13:18:45.276Z,7.83
2018-10-07T13:21:13.739Z,8.10
2018-10-07T13:23:48.155Z,8.53
2018-10-07T13:31:33.645Z,4.37
2018-10-07T13:34:05.005Z,12.77
2018-10-07T13:36:33.540Z,5.03
2018-10-07T13:39:05.361Z,5.57
2018-10-07T13:41:34.384Z,6.70
2018-10-07T13:44:04.099Z,8.47
2018-10-07T13:46:33.663Z,6.10
2018-10-07T13:49:03.524Z,6.77
2018-10-07T13:51:31.986Z,4.10
2018-10-07T13:54:00.731Z,8.13
2018-10-07T13:56:31.446Z,7.57
2018-10-07T13:59:04.311Z,4.90
2018-10-07T14:01:33.673Z,6.73
2018-10-07T14:04:02.855Z,6.60
2018-10-07T14:06:32.185Z,6.73
2018-10-07T14:09:01.013Z,10.30
2018-10-07T14:11:29.533Z,5.97
2018-10-07T14:13:58.131Z,4.80
2018-10-07T14:16:26.367Z,14.67
2018-10-07T14:18:54.865Z,7.07
2018-10-07T14:21:23.982Z,4.67
2018-10-07T14:23:52.025Z,6.67
2018-10-07T14:26:20.175Z,9.60
2018-10-07T14:28:48.255Z,7.00
2018-10-07T14:31:17.211Z,7.50
2018-10-07T14:33:45.946Z,9.77
2018-10-07T14:36:14.250Z,11.20
2018-10-07T14:38:43.264Z,5.30
2018-10-07T14:41:12.321Z,6.10
2018-10-07T14:43:41.326Z,4.60
2018-10-07T14:46:09.530Z,4.93
2018-10-07T14:51:32.597Z,4.83
2018-10-07T14:54:05.287Z,7.03
2018-10-07T14:56:33.586Z,3.67
2018-10-07T14:59:01.913Z,5.70
2018-10-07T15:01:34.091Z,4.80
2018-10-07T15:04:12.013Z,4.47
2018-10-07T15:06:40.511Z,5.73
2018-10-07T15:11:56.926Z,4.70
2018-10-07T15:14:25.150Z,5.33
2018-10-07T15:16:53.457Z,6.90
2018-10-07T15:19:21.678Z,7.93
2018-10-07T15:21:50.157Z,6.60
2018-10-07T15:24:18.633Z,7.60
2018-10-07T15:26:52.334Z,11.00
2018-10-07T15:29:20.842Z,6.93
2018-10-07T15:31:52.997Z,11.53
2018-10-07T15:34:21.325Z,5.87
2018-10-07T15:36:52.071Z,4.83
2018-10-07T15:39:28.031Z,4.07
2018-10-07T15:42:00.401Z,5.20
2018-10-07T15:44:28.837Z,5.77
2018-10-07T15:46:57.093Z,4.43
2018-10-07T15:49:25.459Z,4.03
2018-10-07T15:51:55.971Z,3.67
2018-10-07T15:54:26.223Z,9.27
2018-10-07T15:56:54.323Z,5.60
2018-10-07T15:59:22.538Z,4.83
2018-10-07T16:01:54.804Z,4.80
2018-10-07T16:04:23.185Z,4.53
2018-10-07T16:06:56.454Z,5.20
2018-10-07T16:09:24.604Z,4.77
2018-10-07T16:11:52.714Z,4.63
2018-10-07T16:14:21.060Z,6.83
2018-10-07T16:16:49.099Z,5.93
2018-10-07T16:19:17.444Z,8.23
2018-10-07T16:21:45.521Z,5.70
2018-10-07T16:24:14.871Z,4.47
2018-10-07T16:26:45.341Z,8.00
2018-10-07T16:29:13.550Z,6.97
2018-10-07T16:31:42.537Z,7.17
2018-10-07T16:34:15.594Z,9.93
2018-10-07T16:36:43.903Z,9.27
2018-10-07T16:39:13.100Z,7.23
2018-10-07T16:41:43.159Z,5.40
2018-10-07T16:44:11.743Z,13.33
2018-10-07T16:46:40.742Z,12.60
2018-10-07T16:49:10.310Z,4.90
2018-10-07T16:51:40.697Z,7.30
2018-10-07T16:56:51.587Z,8.90
2018-10-07T16:59:19.866Z,6.03
2018-10-07T17:01:48.134Z,5.40
2018-10-07T17:04:16.324Z,9.57
2018-10-07T17:06:44.547Z,6.80
2018-10-07T17:09:14.394Z,5.00
2018-10-07T17:11:43.009Z,6.10
2018-10-07T17:14:16.804Z,7.97
2018-10-07T17:16:46.169Z,10.37
2018-10-07T17:19:14.597Z,6.90
2018-10-07T17:21:44.199Z,5.63
2018-10-07T17:24:12.423Z,7.67
2018-10-07T17:26:46.674Z,5.40
2018-10-07T17:29:19.630Z,7.90
2018-10-07T17:34:29.346Z,5.70
2018-10-07T17:36:57.458Z,7.13
2018-10-07T17:39:25.845Z,7.13
2018-10-07T17:41:54.118Z,7.20
2018-10-07T17:44:22.522Z,6.13
2018-10-07T17:46:51.565Z,9.33
2018-10-07T17:49:19.969Z,6.40
2018-10-07T17:51:58.002Z,11.23
2018-10-07T17:54:29.170Z,8.07
2018-10-07T17:56:57.217Z,12.57
2018-10-07T17:59:26.351Z,14.90
2018-10-07T18:01:54.947Z,7.90
2018-10-07T18:04:23.173Z,6.33
2018-10-07T18:12:14.703Z,7.30
2018-10-07T18:14:52.146Z,5.70
2018-10-07T18:17:20.301Z,8.00
2018-10-07T18:19:48.419Z,6.23
2018-10-07T18:22:30.445Z,9.00
2018-10-07T18:24:59.209Z,8.90
2018-10-07T18:27:33.600Z,6.70
2018-10-07T18:32:41.136Z,5.10
2018-10-07T18:37:50.611Z,4.33
2018-10-07T18:43:03.472Z,4.83
2018-10-07T18:45:31.640Z,5.33
2018-10-07T18:48:00.976Z,6.33
2018-10-07T18:50:29.603Z,9.80
2018-10-07T18:52:58.348Z,4.47
2018-10-07T18:55:27.257Z,4.63
2018-10-07T18:57:55.622Z,6.00
2018-10-07T19:00:24.970Z,4.27
2018-10-07T19:02:55.719Z,12.60
2018-10-07T19:05:29.010Z,6.33
2018-10-07T19:07:58.579Z,5.80
2018-10-07T19:10:33.432Z,9.70
2018-10-07T19:13:01.957Z,7.50
2018-10-07T19:15:30.345Z,7.50
2018-10-07T19:18:07.725Z,10.47
2018-10-07T19:20:42.487Z,7.10
2018-10-07T19:23:11.165Z,7.10
2018-10-07T19:25:39.373Z,7.80
2018-10-07T19:28:07.689Z,5.53
2018-10-07T19:30:35.912Z,6.47
2018-10-07T19:33:04.290Z,8.67
2018-10-07T19:35:38.485Z,6.83
2018-10-07T19:38:07.432Z,7.33
2018-10-07T19:40:36.182Z,10.17
2018-10-07T19:43:04.526Z,7.23
2018-10-07T19:45:32.734Z,6.73
2018-10-07T19:48:00.786Z,9.70
2018-10-07T19:50:29.693Z,10.30
2018-10-07T19:53:03.735Z,11.37
2018-10-07T19:58:06.108Z,7.63
2018-10-07T20:00:34.349Z,6.07
2018-10-07T20:03:03.326Z,6.30
2018-10-07T20:05:31.454Z,11.80
2018-10-07T20:08:00.025Z,8.13
2018-10-07T20:10:28.367Z,9.17
2018-10-07T20:12:57.247Z,8.70
2018-10-07T20:15:25.320Z,11.80
2018-10-07T20:17:53.914Z,8.60
2018-10-07T20:20:21.949Z,11.77
2018-10-07T20:22:50.086Z,17.83
2018-10-07T20:25:18.189Z,8.67
2018-10-07T20:27:46.731Z,7.27
2018-10-07T20:30:14.934Z,8.60
2018-10-07T20:32:44.584Z,9.03
2018-10-07T20:35:13.242Z,9.30
2018-10-07T20:37:41.495Z,6.30
2018-10-07T20:42:50.294Z,12.20
2018-10-07T20:45:18.264Z,12.70
2018-10-07T20:47:47.368Z,6.60
2018-10-07T20:50:15.647Z,11.07
2018-10-07T20:52:43.857Z,14.10
2018-10-07T20:55:13.671Z,15.80
2018-10-07T20:57:44.989Z,14.03
2018-10-07T21:00:13.069Z,9.80
2018-10-07T21:02:41.388Z,12.37
2018-10-07T21:05:09.705Z,9.07
2018-10-07T21:07:38.174Z,8.83
2018-10-07T21:10:06.334Z,12.30
2018-10-07T21:12:35.507Z,15.83
2018-10-07T21:15:04.702Z,10.00
2018-10-07T21:17:33.298Z,10.90
2018-10-07T21:20:01.285Z,14.27
2018-10-07T21:22:29.853Z,10.50
2018-10-07T21:24:58.824Z,8.77
2018-10-07T21:27:26.990Z,12.97
2018-10-07T21:29:55.118Z,9.00
2018-10-07T21:32:24.192Z,9.83
2018-10-07T21:34:52.197Z,14.03
2018-10-07T21:37:20.289Z,13.00
2018-10-07T21:39:49.526Z,14.80
2018-10-07T21:42:17.531Z,11.93
2018-10-07T21:44:45.514Z,11.77
2018-10-07T21:47:13.484Z,9.80
2018-10-07T21:49:42.183Z,11.13
2018-10-07T21:52:11.202Z,10.00
2018-10-07T21:54:39.407Z,13.50
2018-10-07T21:57:07.536Z,22.07
2018-10-07T21:59:35.685Z,9.90
2018-10-07T22:02:04.821Z,12.20
2018-10-07T22:04:33.760Z,9.80
2018-10-07T22:07:01.935Z,9.97
2018-10-07T22:09:30.668Z,10.63
2018-10-07T22:11:59.389Z,8.17
2018-10-07T22:14:28.699Z,9.20
2018-10-07T22:17:03.218Z,8.87
2018-10-07T22:19:31.956Z,11.77
2018-10-07T22:21:59.998Z,9.00
2018-10-07T22:24:28.188Z,11.83
2018-10-07T22:26:56.141Z,11.27
2018-10-07T22:29:24.157Z,14.73
2018-10-07T22:31:52.724Z,13.97
2018-10-07T22:34:20.783Z,13.17
2018-10-07T22:36:48.740Z,12.67
2018-10-07T22:39:17.786Z,13.03
2018-10-07T22:41:45.821Z,13.47
2018-10-07T22:44:13.957Z,16.90
2018-10-07T22:46:42.149Z,11.90
2018-10-07T22:49:10.306Z,15.47
2018-10-07T22:51:38.518Z,15.60
2018-10-07T22:54:06.804Z,14.20
2018-10-07T22:56:35.405Z,13.13
2018-10-07T22:59:03.675Z,14.60
2018-10-07T23:01:31.801Z,16.30
2018-10-07T23:04:00.143Z,16.63
2018-10-07T23:06:28.255Z,18.60
2018-10-07T23:08:56.742Z,14.40
2018-10-07T23:11:25.005Z,14.90
2018-10-07T23:13:54.077Z,16.20
2018-10-07T23:16:26.450Z,16.90
2018-10-07T23:18:54.573Z,15.23
2018-10-07T23:21:22.537Z,15.47
2018-10-07T23:23:50.539Z,16.40
2018-10-07T23:26:19.415Z,20.70
2018-10-07T23:28:47.513Z,18.57
2018-10-07T23:31:15.521Z,24.90
2018-10-07T23:33:43.952Z,24.93
2018-10-07T23:36:12.933Z,21.53
2018-10-07T23:38:41.189Z,23.17
2018-10-07T23:41:09.492Z,37.60
2018-10-07T23:43:37.575Z,21.53
2018-10-07T23:46:06.915Z,32.70
2018-10-07T23:48:35.304Z,29.73
2018-10-07T23:51:03.388Z,28.77
2018-10-07T23:53:32.675Z,25.37
2018-10-07T23:56:00.841Z,27.70
2018-10-07T23:58:28.984Z,28.80
